Fox Valley, Canada
Current Conditions -  °F | °C
As of 4:00 PM on Tuesday 25 Nov 2014 (Local Time) from CYXH Reporting Station
Overcast Overcast  
Wind Chill: 20°   Ceiling: 1100
Heat Index: 27°   Visibility: 15mi
Dew Point: 25°   Wind: 6mph
Humidity: 93%   Direction: 300°WNW
Pressure: 30.09"   Gusts: NA
Location:  50.47°N, 109.48°W
Report Text: CYXH 252200Z 30005KT 15SM OVC011 M03/M04 A3009 RMK SC8 SLP218
Loading
Personal Weather Stations






























Interactive Weather Map New forecast layout! Learn more

10-Day Weather Forecast

Advertisements
Track Severe Weather on mobile